Latest Coastal Weather Observations for Red Rocks Point

IDW60701

Issued at 8:15 am WST Thursday 2 October 2014 (issued every 10 minutes, with the page automatically refreshed every 10 minutes)

About coastal observations | Map of coastal stations | Coastal observations for WA | Marine services | Other Formats
Station Details ID: 011053 Name: RED ROCKS POINT Lat: -32.20 Lon: 127.53 Height: 3.1 m
Data from the previous 72 hours. | See also: Recent months for locations in Western Australia
Date/Time
WST
Temp

°C
Wind Pressure Rain
since 9am
mm
Weather Cloud Vis
km
Sea
Height
m
Swell
Dir
 
Speed
knots
Gust
knots
hPa Trend Height
m
Period
s
Dir
02/08:00am 17.8 E 19 22 1023.5 - 0.0 - - - - - - -
02/07:30am 17.5 ENE 14 17 1024.0 - 0.0 - - - - - - -
02/07:00am 16.5 ENE 12 15 1023.8 - 0.0 - - - - - - -
02/06:30am 15.9 ENE 12 15 1023.7 - 0.0 - - - - - - -
02/06:00am 14.9 NE 9 12 1023.6 - 0.0 - - - - - - -
02/05:30am 13.6 NE 8 9 1023.6 - 0.0 - - - - - - -
02/05:00am 13.7 NE 9 11 1023.5 - 0.0 - - - - - - -
02/04:30am 14.0 NE 10 12 1023.1 - 0.0 - - - - - - -
02/04:00am 14.4 ENE 13 16 1023.0 - 0.0 - - - - - - -
02/03:30am 14.4 ENE 13 17 1022.8 - 0.0 - - - - - - -
02/03:00am 13.3 NE 5 9 1023.3 - 0.0 - - - - - - -
02/02:30am 13.9 NNE 7 11 1023.3 - 0.0 - - - - - - -
02/02:00am 15.0 NNE 8 23 1023.3 - 0.0 - - - - - - -
02/01:55am 15.6 NNE 10 23 1023.3 - 0.0 - - - - - - -
02/01:30am 15.9 E 21 24 1023.1 - 0.0 - - - - - - -
02/01:00am 15.9 E 20 23 1023.6 - 0.0 - - - - - - -
02/12:30am 16.0 E 20 23 1024.1 - 0.0 - - - - - - -
02/12:00am 16.0 E 20 23 1024.3 - 0.0 - - - - - - -
 
Date/Time
WST
Temp

°C
Wind Pressure Rain
since 9am
mm
Weather Cloud Vis
km
Sea
Height
m
Swell
Dir
 
Speed
knots
Gust
knots
hPa Trend Height
m
Period
s
Dir
01/11:30pm 16.0 E 19 22 1024.7 - 0.0 - - - - - - -
01/11:00pm 16.1 E 19 22 1025.0 - 0.0 - - - - - - -
01/10:30pm 16.0 E 20 23 1025.5 - 0.0 - - - - - - -
01/10:00pm 16.0 E 20 23 1025.6 - 0.0 - - - - - - -
01/09:30pm 16.1 E 20 24 1025.8 - 0.0 - - - - - - -
01/09:00pm 16.0 E 20 23 1025.9 - 0.0 - - - - - - -
01/08:30pm 16.0 E 19 23 1026.0 - 0.0 - - - - - - -
01/08:00pm 16.1 E 19 23 1025.8 - 0.0 - - - - - - -
01/07:30pm 16.0 E 20 24 1025.7 - 0.0 - - - - - - -
01/07:00pm 16.1 E 20 24 1025.5 - 0.0 - - - - - - -
01/06:30pm 16.1 E 21 24 1025.2 - 0.0 - - - - - - -
01/06:00pm 16.1 E 21 23 1025.0 - 0.0 - - - - - - -
01/05:30pm 16.1 E 21 24 1024.7 - 0.0 - - - - - - -
01/05:00pm 16.4 E 22 25 1024.8 - 0.0 - - - - - - -
01/04:30pm 16.7 E 21 25 1024.7 - 0.0 - - - - - - -
01/04:00pm 16.8 E 21 25 1024.7 - 0.0 - - - - - - -
01/03:30pm 17.0 E 21 25 1024.7 - 0.0 - - - - - - -
01/03:00pm 17.4 E 20 24 1024.9 - 0.0 - - - - - - -
01/02:30pm 17.4 E 21 25 1024.9 - 0.0 - - - - - - -
01/02:00pm 17.6 E 22 25 1025.1 - 0.0 - - - - - - -
01/01:30pm 17.7 E 20 23 1025.3 - 0.0 - - - - - - -
01/01:00pm 17.7 E 21 25 1025.7 - 0.0 - - - - - - -
01/12:30pm 17.7 E 21 24 1026.1 - 0.0 - - - - - - -
01/12:00pm 17.8 E 21 23 1026.6 - 0.0 - - - - - - -
01/11:30am 17.6 E 20 24 1027.0 - 0.0 - - - - - - -
01/11:00am 18.0 E 20 23 1027.4 - 0.0 - - - - - - -
01/10:30am 17.9 E 19 23 1028.0 - 0.0 - - - - - - -
01/10:00am 18.0 E 18 21 1028.2 - 0.0 - - - - - - -
01/09:30am 17.9 E 17 21 1028.5 - 0.0 - - - - - - -
01/09:00am 17.4 E 17 20 1028.7 - 0.0 - - - - - - -
01/08:30am 17.2 E 16 20 1028.7 - 0.0 - - - - - - -
01/08:00am 17.0 E 17 19 1028.7 - 0.0 - - - - - - -
01/07:30am 16.7 E 15 19 1028.5 - 0.0 - - - - - - -
01/07:00am 16.5 E 15 19 1028.4 - 0.0 - - - - - - -
01/06:30am 16.3 ESE 13 16 1028.4 - 0.0 - - - - - - -
01/06:00am 15.8 ESE 14 17 1028.1 - 0.0 - - - - - - -
01/05:30am 15.5 ESE 13 17 1027.9 - 0.0 - - - - - - -
01/05:00am 15.7 ESE 14 18 1027.6 - 0.0 - - - - - - -
01/04:30am 15.3 ESE 13 15 1027.4 - 0.0 - - - - - - -
01/04:00am 15.3 ESE 13 15 1027.3 - 0.0 - - - - - - -
01/03:30am 15.5 ESE 13 16 1027.0 - 0.0 - - - - - - -
01/03:00am 15.3 ESE 13 15 1026.8 - 0.0 - - - - - - -
01/02:30am 15.5 ESE 12 14 1026.7 - 0.0 - - - - - - -
01/02:00am 15.4 ESE 13 15 1026.7 - 0.0 - - - - - - -
01/01:30am 15.5 ESE 13 15 1026.6 - 0.0 - - - - - - -
01/01:00am 15.6 ESE 13 15 1026.6 - 0.0 - - - - - - -
01/12:30am 15.7 SE 13 16 1026.6 - 0.0 - - - - - - -
01/12:00am 15.8 ESE 13 14 1026.8 - 0.0 - - - - - - -
 
Date/Time
WST
Temp

°C
Wind Pressure Rain
since 9am
mm
Weather Cloud Vis
km
Sea
Height
m
Swell
Dir
 
Speed
knots
Gust
knots
hPa Trend Height
m
Period
s
Dir
30/11:30pm 15.8 SE 12 14 1026.9 - 0.0 - - - - - - -
30/11:00pm 15.8 SE 12 14 1027.0 - 0.0 - - - - - - -
30/10:30pm 15.8 SE 12 14 1027.1 - 0.0 - - - - - - -
30/10:00pm 16.0 ESE 12 14 1027.1 - 0.0 - - - - - - -
30/09:30pm 15.9 SE 12 14 1027.0 - 0.0 - - - - - - -
30/09:00pm 15.9 SE 11 13 1026.9 - 0.0 - - - - - - -
30/08:30pm 15.9 SE 11 14 1026.8 - 0.0 - - - - - - -
30/08:00pm 16.0 SE 11 13 1026.6 - 0.0 - - - - - - -
30/07:30pm 16.1 SE 11 12 1026.5 - 0.0 - - - - - - -
30/07:00pm 16.1 SSE 11 13 1026.2 - 0.0 - - - - - - -
30/06:30pm 16.2 SSE 11 12 1025.6 - 0.0 - - - - - - -
30/06:00pm 16.2 S 11 12 1025.2 - 0.0 - - - - - - -
30/05:30pm 16.4 SSE 10 12 1024.9 - 0.0 - - - - - - -
30/05:00pm 16.5 S 11 12 1024.5 - 0.0 - - - - - - -
30/04:30pm 17.0 S 11 12 1024.1 - 0.0 - - - - - - -
30/04:00pm 17.7 S 11 13 1023.8 - 0.0 - - - - - - -
30/03:30pm 18.1 S 12 14 1023.6 - 0.0 - - - - - - -
30/03:00pm 18.6 S 10 13 1023.5 - 0.0 - - - - - - -
30/02:30pm 19.1 S 11 13 1023.4 - 0.0 - - - - - - -
30/02:00pm 19.1 S 12 14 1023.1 - 0.0 - - - - - - -
30/01:30pm 19.5 S 13 15 1023.0 - 0.0 - - - - - - -
30/01:00pm 20.1 S 12 15 1023.1 - 0.0 - - - - - - -
30/12:30pm 20.1 S 12 15 1023.0 - 0.0 - - - - - - -
30/12:00pm 19.7 S 12 15 1023.2 - 0.0 - - - - - - -
30/11:30am 20.9 SSW 12 15 1023.2 - 0.0 - - - - - - -
30/11:00am 20.8 S 12 15 1023.2 - 0.0 - - - - - - -
30/10:30am 20.4 SSW 12 15 1023.2 - 0.0 - - - - - - -
30/10:00am 20.6 SSW 10 15 1023.0 - 0.0 - - - - - - -
30/09:30am 19.9 SW 8 11 1022.7 - 0.0 - - - - - - -
30/09:00am 19.7 SW 7 10 1022.5 - 0.0 - - - - - - -
30/08:30am 18.8 SW 6 8 1022.3 - 0.0 - - - - - - -
30/08:00am 17.7 W 5 8 1022.1 - 0.0 - - - - - - -
30/07:30am 15.1 WNW 5 7 1021.9 - 0.0 - - - - - - -
30/07:00am 13.4 W 4 6 1021.7 - 0.0 - - - - - - -
30/06:30am 11.8 NW 8 11 1021.0 - 0.0 - - - - - - -
30/06:00am 9.8 NW 9 11 1020.7 - 0.0 - - - - - - -
30/05:30am 8.8 NW 10 11 1020.1 - 0.0 - - - - - - -
30/05:00am 8.9 NW 10 11 1019.7 - 0.0 - - - - - - -
30/04:30am 8.8 NW 10 11 1019.1 - 0.0 - - - - - - -
30/04:00am 8.8 WNW 10 11 1018.5 - 0.0 - - - - - - -
30/03:30am 10.0 WNW 7 9 1018.2 - 0.0 - - - - - - -
30/03:00am 12.2 SW 7 9 1017.7 - 0.0 - - - - - - -
30/02:30am 10.2 W 7 8 1017.6 - 0.0 - - - - - - -
30/02:00am 11.1 W 6 6 1017.3 - 0.0 - - - - - - -
30/01:30am 12.1 WSW 4 6 1017.3 - 0.0 - - - - - - -
30/01:00am 12.5 SW 5 7 1017.2 - 0.0 - - - - - - -
30/12:30am 14.0 SW 5 6 1017.3 - 0.0 - - - - - - -
30/12:00am 14.3 SSW 6 7 1017.2 - 0.0 - - - - - - -
 
Date/Time
WST
Temp

°C
Wind Pressure Rain
since 9am
mm
Weather Cloud Vis
km
Sea
Height
m
Swell
Dir
 
Speed
knots
Gust
knots
hPa Trend Height
m
Period
s
Dir
29/11:30pm 15.1 SSW 6 8 1017.2 - 0.0 - - - - - - -
29/11:00pm 15.7 S 8 10 1017.1 - 0.0 - - - - - - -
29/10:30pm 15.5 S 7 9 1017.0 - 0.0 - - - - - - -
29/10:00pm 12.9 S 7 8 1016.9 - 0.0 - - - - - - -
29/09:30pm 11.1 S 3 6 1016.7 - 0.0 - - - - - - -
29/09:00pm 10.8 CALM 0 0 1016.6 - 0.0 - - - - - - -
29/08:30pm 11.2 CALM 0 0 1016.0 - 0.0 - - - - - - -
29/08:00pm 11.6 CALM 0 0 1015.9 - 0.0 - - - - - - -
29/07:30pm 12.8 CALM 0 3 1015.6 - 0.0 - - - - - - -
29/07:00pm 14.1 ESE 4 5 1015.1 - 0.0 - - - - - - -
29/06:30pm 16.6 ESE 4 5 1014.7 - 0.0 - - - - - - -
29/06:00pm 16.6 ESE 5 5 1014.2 - 0.0 - - - - - - -
29/05:30pm 17.0 ESE 4 5 1013.7 - 0.0 - - - - - - -
29/05:00pm 17.6 SE 4 5 1013.5 - 0.0 - - - - - - -
29/04:30pm 18.1 SE 5 7 1013.1 - 0.0 - - - - - - -
29/04:00pm 18.6 ESE 5 6 1012.8 - 0.0 - - - - - - -
29/03:30pm 18.8 SE 6 7 1012.5 - 0.0 - - - - - - -
29/03:00pm 19.2 SE 8 9 1012.3 - 0.0 - - - - - - -
29/02:30pm 18.8 SSE 8 9 1012.2 - 0.0 - - - - - - -
29/02:00pm 19.7 SSE 9 11 1012.1 - 0.0 - - - - - - -
29/01:30pm 19.9 SSE 8 10 1012.2 - 0.0 - - - - - - -
29/01:00pm 19.5 SE 7 9 1012.4 - 0.0 - - - - - - -
29/12:30pm 20.1 SE 9 11 1012.7 - 0.0 - - - - - - -
29/12:00pm 20.0 SE 11 13 1013.0 - 0.0 - - - - - - -
29/11:30am 19.2 SSE 15 17 1013.3 - 0.0 - - - - - - -
29/11:13am 22.0 S 14 17 1013.6 - 0.0 - - - - - - -
29/11:00am 27.2 NNW 9 17 1013.6 - 0.0 - - - - - - -
29/10:30am 25.6 NNW 11 19 1014.1 - 0.0 - - - - - - -
29/10:00am 25.1 N 9 16 1014.5 - 0.0 - - - - - - -
29/09:30am 23.4 N 9 15 1015.0 - 0.0 - - - - - - -
29/09:00am 22.7 N 10 16 1015.4 - 0.0 - - - - - - -
29/08:30am 20.6 N 9 15 1015.7 - 0.0 - - - - - - -

Other Formats:

Comma delimited format used in spreadsheet applications
http://www.bom.gov.au/fwo/IDW60701/IDW60701.94644.axf

JavaScript Object Notation format (JSON) in row-major order
http://www.bom.gov.au/fwo/IDW60701/IDW60701.94644.json